sensor_id;sensor_type;location;lat;lon;timestamp;P1;durP1;ratioP1;P2;durP2;ratioP2
77012;SDS011;67260;53.130;17.982;2023-11-18T00:02:15;18.70;;;10.20;;
77012;SDS011;67260;53.130;17.982;2023-11-18T00:04:43;19.30;;;10.40;;
77012;SDS011;67260;53.130;17.982;2023-11-18T00:07:24;20.60;;;10.40;;
77012;SDS011;67260;53.130;17.982;2023-11-18T00:12:20;22.10;;;10.70;;
77012;SDS011;67260;53.130;17.982;2023-11-18T00:15:10;19.80;;;9.80;;
77012;SDS011;67260;53.130;17.982;2023-11-18T00:17:37;22.20;;;10.40;;
77012;SDS011;67260;53.130;17.982;2023-11-18T00:25:02;22.20;;;11.30;;
77012;SDS011;67260;53.130;17.982;2023-11-18T00:27:34;19.40;;;10.80;;
77012;SDS011;67260;53.130;17.982;2023-11-18T00:30:04;20.80;;;11.30;;
77012;SDS011;67260;53.130;17.982;2023-11-18T00:35:18;22.60;;;11.40;;
77012;SDS011;67260;53.130;17.982;2023-11-18T00:38:07;19.80;;;10.60;;
77012;SDS011;67260;53.130;17.982;2023-11-18T00:40:47;22.90;;;12.40;;
77012;SDS011;67260;53.130;17.982;2023-11-18T00:43:14;21.80;;;11.50;;
77012;SDS011;67260;53.130;17.982;2023-11-18T00:45:40;23.40;;;12.50;;
77012;SDS011;67260;53.130;17.982;2023-11-18T00:48:13;22.50;;;11.50;;
77012;SDS011;67260;53.130;17.982;2023-11-18T00:50:44;23.50;;;11.50;;
77012;SDS011;67260;53.130;17.982;2023-11-18T00:56:07;23.90;;;12.20;;
77012;SDS011;67260;53.130;17.982;2023-11-18T00:58:39;24.20;;;13.10;;
77012;SDS011;67260;53.130;17.982;2023-11-18T01:01:06;23.30;;;12.30;;
77012;SDS011;67260;53.130;17.982;2023-11-18T01:03:34;23.10;;;12.40;;
77012;SDS011;67260;53.130;17.982;2023-11-18T01:06:01;24.00;;;11.30;;
77012;SDS011;67260;53.130;17.982;2023-11-18T01:08:28;22.90;;;11.90;;
77012;SDS011;67260;53.130;17.982;2023-11-18T01:14:33;22.70;;;11.50;;
77012;SDS011;67260;53.130;17.982;2023-11-18T01:17:00;22.90;;;12.30;;
77012;SDS011;67260;53.130;17.982;2023-11-18T01:19:27;23.50;;;12.90;;
77012;SDS011;67260;53.130;17.982;2023-11-18T01:22:44;23.90;;;13.00;;
77012;SDS011;67260;53.130;17.982;2023-11-18T01:25:12;22.50;;;11.90;;
77012;SDS011;67260;53.130;17.982;2023-11-18T01:27:41;24.40;;;12.70;;
77012;SDS011;67260;53.130;17.982;2023-11-18T01:32:37;23.40;;;13.10;;
77012;SDS011;67260;53.130;17.982;2023-11-18T01:35:06;23.00;;;11.60;;
77012;SDS011;67260;53.130;17.982;2023-11-18T01:37:34;24.30;;;12.60;;
77012;SDS011;67260;53.130;17.982;2023-11-18T01:40:01;27.00;;;13.70;;
77012;SDS011;67260;53.130;17.982;2023-11-18T01:42:31;23.30;;;12.20;;
77012;SDS011;67260;53.130;17.982;2023-11-18T01:44:58;23.50;;;13.40;;
77012;SDS011;67260;53.130;17.982;2023-11-18T01:47:35;22.90;;;11.90;;
77012;SDS011;67260;53.130;17.982;2023-11-18T01:50:03;26.10;;;13.90;;
77012;SDS011;67260;53.130;17.982;2023-11-18T01:52:33;24.90;;;12.90;;
77012;SDS011;67260;53.130;17.982;2023-11-18T01:55:00;22.90;;;12.00;;
77012;SDS011;67260;53.130;17.982;2023-11-18T01:57:30;23.30;;;12.90;;
77012;SDS011;67260;53.130;17.982;2023-11-18T01:59:57;25.40;;;13.10;;
77012;SDS011;67260;53.130;17.982;2023-11-18T02:02:27;24.10;;;12.00;;
77012;SDS011;67260;53.130;17.982;2023-11-18T02:04:54;24.90;;;12.60;;
77012;SDS011;67260;53.130;17.982;2023-11-18T02:07:24;24.30;;;12.80;;
77012;SDS011;67260;53.130;17.982;2023-11-18T02:09:51;25.50;;;12.80;;
77012;SDS011;67260;53.130;17.982;2023-11-18T02:14:51;27.20;;;13.90;;
77012;SDS011;67260;53.130;17.982;2023-11-18T02:17:21;24.10;;;12.10;;
77012;SDS011;67260;53.130;17.982;2023-11-18T02:19:52;26.80;;;13.20;;
77012;SDS011;67260;53.130;17.982;2023-11-18T02:22:19;23.90;;;12.80;;
77012;SDS011;67260;53.130;17.982;2023-11-18T02:24:48;24.70;;;12.80;;
77012;SDS011;67260;53.130;17.982;2023-11-18T02:27:16;25.80;;;13.10;;
77012;SDS011;67260;53.130;17.982;2023-11-18T02:29:46;25.10;;;12.40;;
77012;SDS011;67260;53.130;17.982;2023-11-18T02:34:52;23.70;;;12.50;;
77012;SDS011;67260;53.130;17.982;2023-11-18T02:37:25;24.80;;;12.60;;
77012;SDS011;67260;53.130;17.982;2023-11-18T02:39:55;27.40;;;13.50;;
77012;SDS011;67260;53.130;17.982;2023-11-18T02:42:30;25.40;;;12.40;;
77012;SDS011;67260;53.130;17.982;2023-11-18T02:47:26;24.50;;;12.00;;
77012;SDS011;67260;53.130;17.982;2023-11-18T02:49:53;22.80;;;11.20;;
77012;SDS011;67260;53.130;17.982;2023-11-18T02:52:23;30.80;;;12.80;;
77012;SDS011;67260;53.130;17.982;2023-11-18T02:54:49;26.10;;;12.40;;
77012;SDS011;67260;53.130;17.982;2023-11-18T02:57:16;26.10;;;13.50;;
77012;SDS011;67260;53.130;17.982;2023-11-18T02:59:43;26.60;;;13.70;;
77012;SDS011;67260;53.130;17.982;2023-11-18T03:02:13;26.10;;;12.50;;
77012;SDS011;67260;53.130;17.982;2023-11-18T03:04:41;25.20;;;12.30;;
77012;SDS011;67260;53.130;17.982;2023-11-18T03:07:11;26.10;;;12.80;;
77012;SDS011;67260;53.130;17.982;2023-11-18T03:09:38;27.60;;;13.60;;
77012;SDS011;67260;53.130;17.982;2023-11-18T03:12:06;32.10;;;14.10;;
77012;SDS011;67260;53.130;17.982;2023-11-18T03:14:34;30.80;;;14.10;;
77012;SDS011;67260;53.130;17.982;2023-11-18T03:17:01;27.80;;;14.40;;
77012;SDS011;67260;53.130;17.982;2023-11-18T03:19:28;26.90;;;13.30;;
77012;SDS011;67260;53.130;17.982;2023-11-18T03:21:55;28.70;;;14.60;;
77012;SDS011;67260;53.130;17.982;2023-11-18T03:24:22;26.30;;;13.20;;
77012;SDS011;67260;53.130;17.982;2023-11-18T03:29:16;25.20;;;12.40;;
77012;SDS011;67260;53.130;17.982;2023-11-18T03:31:43;25.30;;;12.80;;
77012;SDS011;67260;53.130;17.982;2023-11-18T03:34:14;23.30;;;11.80;;
77012;SDS011;67260;53.130;17.982;2023-11-18T03:36:44;23.00;;;12.00;;
77012;SDS011;67260;53.130;17.982;2023-11-18T03:39:15;27.80;;;13.50;;
77012;SDS011;67260;53.130;17.982;2023-11-18T03:41:43;29.10;;;13.50;;
77012;SDS011;67260;53.130;17.982;2023-11-18T03:44:24;27.90;;;13.80;;
77012;SDS011;67260;53.130;17.982;2023-11-18T03:47:00;24.50;;;12.20;;
77012;SDS011;67260;53.130;17.982;2023-11-18T03:49:42;29.70;;;13.90;;
77012;SDS011;67260;53.130;17.982;2023-11-18T03:52:18;26.50;;;13.40;;
77012;SDS011;67260;53.130;17.982;2023-11-18T03:54:58;24.50;;;12.30;;
77012;SDS011;67260;53.130;17.982;2023-11-18T03:57:36;23.20;;;11.30;;
77012;SDS011;67260;53.130;17.982;2023-11-18T04:00:16;24.90;;;12.70;;
77012;SDS011;67260;53.130;17.982;2023-11-18T04:02:46;25.80;;;11.50;;
77012;SDS011;67260;53.130;17.982;2023-11-18T04:05:37;24.60;;;12.50;;
77012;SDS011;67260;53.130;17.982;2023-11-18T04:08:17;27.80;;;12.90;;
77012;SDS011;67260;53.130;17.982;2023-11-18T04:10:49;24.40;;;12.40;;
77012;SDS011;67260;53.130;17.982;2023-11-18T04:13:31;27.90;;;13.50;;
77012;SDS011;67260;53.130;17.982;2023-11-18T04:15:58;26.50;;;12.40;;
77012;SDS011;67260;53.130;17.982;2023-11-18T04:18:36;24.10;;;12.20;;
77012;SDS011;67260;53.130;17.982;2023-11-18T04:21:05;22.50;;;11.60;;
77012;SDS011;67260;53.130;17.982;2023-11-18T04:23:34;24.40;;;12.10;;
77012;SDS011;67260;53.130;17.982;2023-11-18T04:32:18;22.90;;;11.30;;
77012;SDS011;67260;53.130;17.982;2023-11-18T04:34:57;22.90;;;12.30;;
77012;SDS011;67260;53.130;17.982;2023-11-18T04:45:09;22.10;;;10.90;;
77012;SDS011;67260;53.130;17.982;2023-11-18T04:48:01;21.80;;;11.30;;
77012;SDS011;67260;53.130;17.982;2023-11-18T04:50:40;26.30;;;12.30;;
77012;SDS011;67260;53.130;17.982;2023-11-18T04:53:09;24.40;;;12.40;;
77012;SDS011;67260;53.130;17.982;2023-11-18T04:55:37;25.20;;;11.70;;
77012;SDS011;67260;53.130;17.982;2023-11-18T05:05:29;25.60;;;12.70;;
77012;SDS011;67260;53.130;17.982;2023-11-18T05:07:58;22.90;;;11.20;;
77012;SDS011;67260;53.130;17.982;2023-11-18T05:10:38;25.80;;;12.20;;
77012;SDS011;67260;53.130;17.982;2023-11-18T05:16:06;22.90;;;10.70;;
77012;SDS011;67260;53.130;17.982;2023-11-18T05:18:59;23.30;;;11.90;;
77012;SDS011;67260;53.130;17.982;2023-11-18T05:21:26;24.40;;;12.40;;
77012;SDS011;67260;53.130;17.982;2023-11-18T05:26:19;21.80;;;11.10;;
77012;SDS011;67260;53.130;17.982;2023-11-18T05:28:54;22.10;;;10.60;;
77012;SDS011;67260;53.130;17.982;2023-11-18T05:31:22;19.80;;;9.80;;
77012;SDS011;67260;53.130;17.982;2023-11-18T05:34:09;21.10;;;11.20;;
77012;SDS011;67260;53.130;17.982;2023-11-18T05:39:37;23.20;;;11.10;;
77012;SDS011;67260;53.130;17.982;2023-11-18T05:42:21;27.50;;;12.20;;
77012;SDS011;67260;53.130;17.982;2023-11-18T05:44:48;22.40;;;10.80;;
77012;SDS011;67260;53.130;17.982;2023-11-18T05:47:26;22.70;;;11.60;;
77012;SDS011;67260;53.130;17.982;2023-11-18T05:50:07;22.50;;;11.90;;
77012;SDS011;67260;53.130;17.982;2023-11-18T05:52:43;22.60;;;12.00;;
77012;SDS011;67260;53.130;17.982;2023-11-18T05:55:22;22.40;;;12.00;;
77012;SDS011;67260;53.130;17.982;2023-11-18T05:58:03;23.90;;;12.00;;
77012;SDS011;67260;53.130;17.982;2023-11-18T06:00:46;23.60;;;12.00;;
77012;SDS011;67260;53.130;17.982;2023-11-18T06:07:33;23.50;;;11.10;;
77012;SDS011;67260;53.130;17.982;2023-11-18T06:11:18;21.40;;;10.90;;
77012;SDS011;67260;53.130;17.982;2023-11-18T06:13:46;24.50;;;11.80;;
77012;SDS011;67260;53.130;17.982;2023-11-18T06:17:18;21.30;;;10.30;;
77012;SDS011;67260;53.130;17.982;2023-11-18T06:19:58;21.80;;;11.70;;
77012;SDS011;67260;53.130;17.982;2023-11-18T06:22:39;22.30;;;10.80;;
77012;SDS011;67260;53.130;17.982;2023-11-18T06:25:14;20.00;;;10.70;;
77012;SDS011;67260;53.130;17.982;2023-11-18T06:27:43;24.90;;;11.60;;
77012;SDS011;67260;53.130;17.982;2023-11-18T06:30:18;24.70;;;11.20;;
77012;SDS011;67260;53.130;17.982;2023-11-18T06:32:48;22.80;;;11.10;;
77012;SDS011;67260;53.130;17.982;2023-11-18T06:35:29;23.20;;;11.50;;
77012;SDS011;67260;53.130;17.982;2023-11-18T06:38:03;22.10;;;11.70;;
77012;SDS011;67260;53.130;17.982;2023-11-18T06:44:20;25.00;;;12.60;;
77012;SDS011;67260;53.130;17.982;2023-11-18T06:46:50;24.60;;;12.60;;
77012;SDS011;67260;53.130;17.982;2023-11-18T06:49:18;25.90;;;13.70;;
77012;SDS011;67260;53.130;17.982;2023-11-18T07:09:00;24.20;;;11.70;;
77012;SDS011;67260;53.130;17.982;2023-11-18T07:21:11;17.70;;;9.70;;
77012;SDS011;67260;53.130;17.982;2023-11-18T07:23:53;21.20;;;10.70;;
77012;SDS011;67260;53.130;17.982;2023-11-18T07:26:37;19.80;;;10.40;;
77012;SDS011;67260;53.130;17.982;2023-11-18T07:32:56;20.30;;;10.30;;
77012;SDS011;67260;53.130;17.982;2023-11-18T07:39:33;18.50;;;9.80;;
77012;SDS011;67260;53.130;17.982;2023-11-18T07:42:23;19.50;;;9.90;;
77012;SDS011;67260;53.130;17.982;2023-11-18T07:45:17;17.50;;;10.10;;
77012;SDS011;67260;53.130;17.982;2023-11-18T07:47:50;48.90;;;23.90;;
77012;SDS011;67260;53.130;17.982;2023-11-18T07:53:56;18.10;;;10.00;;
77012;SDS011;67260;53.130;17.982;2023-11-18T07:59:24;18.30;;;10.40;;
77012;SDS011;67260;53.130;17.982;2023-11-18T08:09:19;18.60;;;10.90;;
77012;SDS011;67260;53.130;17.982;2023-11-18T08:12:52;20.00;;;10.80;;
77012;SDS011;67260;53.130;17.982;2023-11-18T08:16:41;17.70;;;10.00;;
77012;SDS011;67260;53.130;17.982;2023-11-18T08:19:47;16.10;;;9.70;;
77012;SDS011;67260;53.130;17.982;2023-11-18T08:22:58;18.40;;;10.50;;
77012;SDS011;67260;53.130;17.982;2023-11-18T08:25:51;18.40;;;10.60;;
77012;SDS011;67260;53.130;17.982;2023-11-18T08:29:20;17.10;;;9.60;;
77012;SDS011;67260;53.130;17.982;2023-11-18T08:32:01;18.20;;;10.20;;
77012;SDS011;67260;53.130;17.982;2023-11-18T08:44:39;20.00;;;10.40;;
77012;SDS011;67260;53.130;17.982;2023-11-18T08:47:09;19.70;;;10.50;;
77012;SDS011;67260;53.130;17.982;2023-11-18T08:49:52;19.10;;;10.50;;
77012;SDS011;67260;53.130;17.982;2023-11-18T08:52:23;20.40;;;10.50;;
77012;SDS011;67260;53.130;17.982;2023-11-18T08:54:53;20.50;;;10.90;;
77012;SDS011;67260;53.130;17.982;2023-11-18T08:57:42;20.70;;;10.80;;
77012;SDS011;67260;53.130;17.982;2023-11-18T09:00:18;21.10;;;11.60;;
77012;SDS011;67260;53.130;17.982;2023-11-18T09:13:24;21.00;;;11.30;;
77012;SDS011;67260;53.130;17.982;2023-11-18T09:23:11;16.30;;;10.80;;
77012;SDS011;67260;53.130;17.982;2023-11-18T09:39:41;13.30;;;10.60;;
77012;SDS011;67260;53.130;17.982;2023-11-18T09:45:41;20.20;;;15.00;;
77012;SDS011;67260;53.130;17.982;2023-11-18T09:48:23;20.50;;;14.50;;
77012;SDS011;67260;53.130;17.982;2023-11-18T09:50:53;20.70;;;14.10;;
77012;SDS011;67260;53.130;17.982;2023-11-18T09:53:28;20.70;;;13.10;;
77012;SDS011;67260;53.130;17.982;2023-11-18T09:56:06;22.90;;;13.20;;
77012;SDS011;67260;53.130;17.982;2023-11-18T09:58:45;19.80;;;14.00;;
77012;SDS011;67260;53.130;17.982;2023-11-18T10:01:23;17.40;;;11.50;;
77012;SDS011;67260;53.130;17.982;2023-11-18T10:06:57;17.40;;;11.20;;
77012;SDS011;67260;53.130;17.982;2023-11-18T10:09:27;13.00;;;9.00;;
77012;SDS011;67260;53.130;17.982;2023-11-18T10:12:10;14.20;;;8.00;;
77012;SDS011;67260;53.130;17.982;2023-11-18T10:14:41;13.80;;;9.00;;
77012;SDS011;67260;53.130;17.982;2023-11-18T10:17:12;13.10;;;8.10;;
77012;SDS011;67260;53.130;17.982;2023-11-18T10:19:50;11.50;;;7.10;;
77012;SDS011;67260;53.130;17.982;2023-11-18T10:22:24;12.60;;;8.20;;
77012;SDS011;67260;53.130;17.982;2023-11-18T10:24:53;12.90;;;7.30;;
77012;SDS011;67260;53.130;17.982;2023-11-18T10:27:24;13.20;;;7.80;;
77012;SDS011;67260;53.130;17.982;2023-11-18T10:29:57;12.00;;;7.30;;
77012;SDS011;67260;53.130;17.982;2023-11-18T10:32:28;12.30;;;7.00;;
77012;SDS011;67260;53.130;17.982;2023-11-18T10:34:56;12.40;;;6.60;;
77012;SDS011;67260;53.130;17.982;2023-11-18T10:37:31;10.70;;;7.00;;
77012;SDS011;67260;53.130;17.982;2023-11-18T10:40:03;11.10;;;6.80;;
77012;SDS011;67260;53.130;17.982;2023-11-18T10:42:40;12.40;;;7.00;;
77012;SDS011;67260;53.130;17.982;2023-11-18T10:48:51;11.30;;;6.90;;
77012;SDS011;67260;53.130;17.982;2023-11-18T10:51:20;10.80;;;6.70;;
77012;SDS011;67260;53.130;17.982;2023-11-18T10:53:53;10.30;;;5.80;;
77012;SDS011;67260;53.130;17.982;2023-11-18T10:56:20;11.00;;;6.70;;
77012;SDS011;67260;53.130;17.982;2023-11-18T10:58:59;13.80;;;7.90;;
77012;SDS011;67260;53.130;17.982;2023-11-18T11:01:38;14.30;;;8.60;;
77012;SDS011;67260;53.130;17.982;2023-11-18T11:04:11;12.60;;;7.60;;
77012;SDS011;67260;53.130;17.982;2023-11-18T11:06:43;18.30;;;9.70;;
77012;SDS011;67260;53.130;17.982;2023-11-18T11:09:23;15.60;;;8.60;;
77012;SDS011;67260;53.130;17.982;2023-11-18T11:12:27;16.10;;;8.20;;
77012;SDS011;67260;53.130;17.982;2023-11-18T11:15:12;14.00;;;8.20;;
77012;SDS011;67260;53.130;17.982;2023-11-18T11:18:08;15.10;;;8.40;;
77012;SDS011;67260;53.130;17.982;2023-11-18T11:30:50;14.80;;;8.70;;
77012;SDS011;67260;53.130;17.982;2023-11-18T11:38:26;13.70;;;7.40;;
77012;SDS011;67260;53.130;17.982;2023-11-18T11:41:12;10.30;;;6.00;;
77012;SDS011;67260;53.130;17.982;2023-11-18T11:43:52;11.80;;;7.30;;
77012;SDS011;67260;53.130;17.982;2023-11-18T11:46:39;14.30;;;8.20;;
77012;SDS011;67260;53.130;17.982;2023-11-18T11:49:44;13.20;;;8.00;;
77012;SDS011;67260;53.130;17.982;2023-11-18T11:52:33;13.40;;;7.50;;
77012;SDS011;67260;53.130;17.982;2023-11-18T11:58:42;12.20;;;6.10;;
77012;SDS011;67260;53.130;17.982;2023-11-18T12:04:00;10.80;;;6.30;;
77012;SDS011;67260;53.130;17.982;2023-11-18T12:06:33;10.20;;;6.40;;
77012;SDS011;67260;53.130;17.982;2023-11-18T12:09:10;11.50;;;6.50;;
77012;SDS011;67260;53.130;17.982;2023-11-18T12:11:37;10.50;;;5.70;;
77012;SDS011;67260;53.130;17.982;2023-11-18T12:14:12;11.70;;;6.60;;
77012;SDS011;67260;53.130;17.982;2023-11-18T12:16:57;12.90;;;6.30;;
77012;SDS011;67260;53.130;17.982;2023-11-18T12:19:39;10.80;;;5.60;;
77012;SDS011;67260;53.130;17.982;2023-11-18T12:25:43;11.90;;;7.10;;
77012;SDS011;67260;53.130;17.982;2023-11-18T12:28:27;13.20;;;7.10;;
77012;SDS011;67260;53.130;17.982;2023-11-18T12:30:57;12.30;;;6.40;;
77012;SDS011;67260;53.130;17.982;2023-11-18T12:45:42;12.30;;;6.90;;
77012;SDS011;67260;53.130;17.982;2023-11-18T12:48:14;12.40;;;6.80;;
77012;SDS011;67260;53.130;17.982;2023-11-18T12:50:41;13.20;;;6.90;;
77012;SDS011;67260;53.130;17.982;2023-11-18T12:53:14;13.30;;;7.50;;
77012;SDS011;67260;53.130;17.982;2023-11-18T12:55:41;12.70;;;7.50;;
77012;SDS011;67260;53.130;17.982;2023-11-18T12:58:09;13.10;;;7.30;;
77012;SDS011;67260;53.130;17.982;2023-11-18T13:00:39;12.20;;;7.10;;
77012;SDS011;67260;53.130;17.982;2023-11-18T13:03:09;12.20;;;7.60;;
77012;SDS011;67260;53.130;17.982;2023-11-18T13:05:37;16.30;;;9.20;;
77012;SDS011;67260;53.130;17.982;2023-11-18T13:08:04;13.00;;;7.20;;
77012;SDS011;67260;53.130;17.982;2023-11-18T13:10:31;13.30;;;7.50;;
77012;SDS011;67260;53.130;17.982;2023-11-18T13:12:58;13.90;;;7.90;;
77012;SDS011;67260;53.130;17.982;2023-11-18T13:15:27;13.70;;;7.90;;
77012;SDS011;67260;53.130;17.982;2023-11-18T13:18:01;13.70;;;7.80;;
77012;SDS011;67260;53.130;17.982;2023-11-18T13:20:38;16.50;;;8.80;;
77012;SDS011;67260;53.130;17.982;2023-11-18T13:23:08;14.40;;;8.10;;
77012;SDS011;67260;53.130;17.982;2023-11-18T13:25:35;12.80;;;7.50;;
77012;SDS011;67260;53.130;17.982;2023-11-18T13:28:05;11.80;;;7.00;;
77012;SDS011;67260;53.130;17.982;2023-11-18T13:30:36;14.90;;;7.20;;
77012;SDS011;67260;53.130;17.982;2023-11-18T13:33:05;11.50;;;6.70;;
77012;SDS011;67260;53.130;17.982;2023-11-18T13:35:34;13.70;;;7.50;;
77012;SDS011;67260;53.130;17.982;2023-11-18T13:38:02;14.00;;;7.80;;
77012;SDS011;67260;53.130;17.982;2023-11-18T13:40:44;15.70;;;9.00;;
77012;SDS011;67260;53.130;17.982;2023-11-18T13:43:13;15.40;;;8.40;;
77012;SDS011;67260;53.130;17.982;2023-11-18T13:45:40;15.20;;;7.80;;
77012;SDS011;67260;53.130;17.982;2023-11-18T13:48:09;14.30;;;8.00;;
77012;SDS011;67260;53.130;17.982;2023-11-18T13:50:40;15.00;;;8.40;;
77012;SDS011;67260;53.130;17.982;2023-11-18T13:53:07;17.70;;;9.70;;
77012;SDS011;67260;53.130;17.982;2023-11-18T13:55:34;16.20;;;8.00;;
77012;SDS011;67260;53.130;17.982;2023-11-18T13:58:05;15.80;;;8.20;;
77012;SDS011;67260;53.130;17.982;2023-11-18T14:00:32;15.50;;;8.40;;
77012;SDS011;67260;53.130;17.982;2023-11-18T14:05:25;14.60;;;8.00;;
77012;SDS011;67260;53.130;17.982;2023-11-18T14:10:25;17.20;;;8.70;;
77012;SDS011;67260;53.130;17.982;2023-11-18T14:13:00;17.10;;;9.50;;
77012;SDS011;67260;53.130;17.982;2023-11-18T14:19:45;59.10;;;19.70;;
77012;SDS011;67260;53.130;17.982;2023-11-18T14:22:12;22.70;;;11.90;;
77012;SDS011;67260;53.130;17.982;2023-11-18T14:24:39;33.30;;;13.60;;
77012;SDS011;67260;53.130;17.982;2023-11-18T14:27:07;72.30;;;26.90;;
77012;SDS011;67260;53.130;17.982;2023-11-18T14:29:36;39.40;;;17.30;;
77012;SDS011;67260;53.130;17.982;2023-11-18T14:32:04;25.70;;;12.20;;
77012;SDS011;67260;53.130;17.982;2023-11-18T14:34:32;29.90;;;12.30;;
77012;SDS011;67260;53.130;17.982;2023-11-18T14:36:59;30.20;;;10.40;;
77012;SDS011;67260;53.130;17.982;2023-11-18T14:39:27;46.10;;;17.80;;
77012;SDS011;67260;53.130;17.982;2023-11-18T14:44:20;24.00;;;10.20;;
77012;SDS011;67260;53.130;17.982;2023-11-18T14:46:53;89.40;;;34.00;;
77012;SDS011;67260;53.130;17.982;2023-11-18T14:49:21;115.00;;;48.60;;
77012;SDS011;67260;53.130;17.982;2023-11-18T14:51:48;57.00;;;30.70;;
77012;SDS011;67260;53.130;17.982;2023-11-18T14:54:15;55.90;;;28.00;;
77012;SDS011;67260;53.130;17.982;2023-11-18T14:56:43;24.40;;;12.10;;
77012;SDS011;67260;53.130;17.982;2023-11-18T14:59:13;31.90;;;15.10;;
77012;SDS011;67260;53.130;17.982;2023-11-18T15:01:43;23.00;;;12.30;;
77012;SDS011;67260;53.130;17.982;2023-11-18T15:04:14;20.70;;;10.20;;
77012;SDS011;67260;53.130;17.982;2023-11-18T15:06:42;33.80;;;16.50;;
77012;SDS011;67260;53.130;17.982;2023-11-18T15:11:37;50.80;;;22.00;;
77012;SDS011;67260;53.130;17.982;2023-11-18T15:16:30;32.40;;;12.60;;
77012;SDS011;67260;53.130;17.982;2023-11-18T15:18:57;35.70;;;17.10;;
77012;SDS011;67260;53.130;17.982;2023-11-18T15:21:25;40.20;;;18.80;;
77012;SDS011;67260;53.130;17.982;2023-11-18T15:26:28;43.20;;;16.60;;
77012;SDS011;67260;53.130;17.982;2023-11-18T15:28:57;51.10;;;17.80;;
77012;SDS011;67260;53.130;17.982;2023-11-18T15:31:48;55.60;;;18.80;;
77012;SDS011;67260;53.130;17.982;2023-11-18T15:34:15;32.00;;;13.70;;
77012;SDS011;67260;53.130;17.982;2023-11-18T15:46:04;60.20;;;27.00;;
77012;SDS011;67260;53.130;17.982;2023-11-18T15:48:32;31.00;;;16.60;;
77012;SDS011;67260;53.130;17.982;2023-11-18T15:51:02;19.60;;;9.70;;
77012;SDS011;67260;53.130;17.982;2023-11-18T15:53:29;20.00;;;10.20;;
77012;SDS011;67260;53.130;17.982;2023-11-18T15:55:56;23.10;;;11.40;;
77012;SDS011;67260;53.130;17.982;2023-11-18T15:58:23;30.80;;;16.30;;
77012;SDS011;67260;53.130;17.982;2023-11-18T16:00:52;27.40;;;14.20;;
77012;SDS011;67260;53.130;17.982;2023-11-18T16:03:19;25.30;;;12.90;;
77012;SDS011;67260;53.130;17.982;2023-11-18T16:09:08;24.90;;;13.80;;
77012;SDS011;67260;53.130;17.982;2023-11-18T16:11:36;21.10;;;11.60;;
77012;SDS011;67260;53.130;17.982;2023-11-18T16:14:04;23.50;;;12.00;;
77012;SDS011;67260;53.130;17.982;2023-11-18T16:16:34;27.80;;;15.00;;
77012;SDS011;67260;53.130;17.982;2023-11-18T16:19:17;25.90;;;13.30;;
77012;SDS011;67260;53.130;17.982;2023-11-18T16:21:46;28.90;;;13.80;;
77012;SDS011;67260;53.130;17.982;2023-11-18T16:34:07;30.20;;;15.10;;
77012;SDS011;67260;53.130;17.982;2023-11-18T16:39:34;28.60;;;14.30;;
77012;SDS011;67260;53.130;17.982;2023-11-18T16:45:36;34.20;;;16.10;;
77012;SDS011;67260;53.130;17.982;2023-11-18T16:49:14;32.70;;;15.40;;
77012;SDS011;67260;53.130;17.982;2023-11-18T16:51:46;34.60;;;15.60;;
77012;SDS011;67260;53.130;17.982;2023-11-18T16:54:14;26.50;;;13.80;;
77012;SDS011;67260;53.130;17.982;2023-11-18T16:56:41;24.90;;;11.50;;
77012;SDS011;67260;53.130;17.982;2023-11-18T16:59:14;26.30;;;13.90;;
77012;SDS011;67260;53.130;17.982;2023-11-18T17:01:41;24.10;;;12.10;;
77012;SDS011;67260;53.130;17.982;2023-11-18T17:04:12;25.90;;;12.50;;
77012;SDS011;67260;53.130;17.982;2023-11-18T17:06:39;25.30;;;12.60;;
77012;SDS011;67260;53.130;17.982;2023-11-18T17:09:20;21.10;;;11.00;;
77012;SDS011;67260;53.130;17.982;2023-11-18T17:27:55;25.20;;;12.30;;
77012;SDS011;67260;53.130;17.982;2023-11-18T17:30:24;22.20;;;11.10;;
77012;SDS011;67260;53.130;17.982;2023-11-18T17:32:51;33.20;;;14.60;;
77012;SDS011;67260;53.130;17.982;2023-11-18T17:37:46;30.20;;;12.90;;
77012;SDS011;67260;53.130;17.982;2023-11-18T17:42:46;28.60;;;12.70;;
77012;SDS011;67260;53.130;17.982;2023-11-18T17:47:45;23.90;;;10.70;;
77012;SDS011;67260;53.130;17.982;2023-11-18T17:50:13;31.30;;;11.80;;
77012;SDS011;67260;53.130;17.982;2023-11-18T17:52:54;26.50;;;12.30;;
77012;SDS011;67260;53.130;17.982;2023-11-18T17:55:23;28.20;;;13.10;;
77012;SDS011;67260;53.130;17.982;2023-11-18T17:57:50;30.40;;;13.70;;
77012;SDS011;67260;53.130;17.982;2023-11-18T18:01:00;30.80;;;15.00;;
77012;SDS011;67260;53.130;17.982;2023-11-18T18:07:07;30.20;;;13.30;;
77012;SDS011;67260;53.130;17.982;2023-11-18T18:12:53;29.90;;;14.30;;
77012;SDS011;67260;53.130;17.982;2023-11-18T18:42:44;41.60;;;17.00;;
77012;SDS011;67260;53.130;17.982;2023-11-18T18:45:28;35.80;;;16.20;;
77012;SDS011;67260;53.130;17.982;2023-11-18T18:51:15;36.20;;;15.70;;
77012;SDS011;67260;53.130;17.982;2023-11-18T18:53:55;36.40;;;15.90;;
77012;SDS011;67260;53.130;17.982;2023-11-18T18:57:20;59.10;;;26.00;;
77012;SDS011;67260;53.130;17.982;2023-11-18T18:59:55;49.70;;;21.10;;
77012;SDS011;67260;53.130;17.982;2023-11-18T19:02:25;34.60;;;17.10;;
77012;SDS011;67260;53.130;17.982;2023-11-18T19:05:20;36.00;;;15.90;;
77012;SDS011;67260;53.130;17.982;2023-11-18T19:15:16;30.80;;;15.30;;
77012;SDS011;67260;53.130;17.982;2023-11-18T19:17:43;35.50;;;16.30;;
77012;SDS011;67260;53.130;17.982;2023-11-18T19:20:11;33.60;;;16.00;;
77012;SDS011;67260;53.130;17.982;2023-11-18T19:22:50;35.70;;;17.10;;
77012;SDS011;67260;53.130;17.982;2023-11-18T19:31:07;45.30;;;18.50;;
77012;SDS011;67260;53.130;17.982;2023-11-18T19:33:42;39.20;;;17.70;;
77012;SDS011;67260;53.130;17.982;2023-11-18T19:36:34;35.20;;;15.80;;
77012;SDS011;67260;53.130;17.982;2023-11-18T19:39:01;43.10;;;19.30;;
77012;SDS011;67260;53.130;17.982;2023-11-18T19:41:29;38.50;;;18.70;;
77012;SDS011;67260;53.130;17.982;2023-11-18T19:43:56;40.10;;;18.60;;
77012;SDS011;67260;53.130;17.982;2023-11-18T19:46:24;46.90;;;21.10;;
77012;SDS011;67260;53.130;17.982;2023-11-18T19:48:52;47.80;;;21.30;;
77012;SDS011;67260;53.130;17.982;2023-11-18T19:51:21;36.00;;;18.00;;
77012;SDS011;67260;53.130;17.982;2023-11-18T19:53:48;43.30;;;19.50;;
77012;SDS011;67260;53.130;17.982;2023-11-18T19:56:15;47.40;;;20.50;;
77012;SDS011;67260;53.130;17.982;2023-11-18T19:58:48;46.60;;;21.20;;
77012;SDS011;67260;53.130;17.982;2023-11-18T20:03:48;43.60;;;20.70;;
77012;SDS011;67260;53.130;17.982;2023-11-18T20:06:21;47.10;;;23.60;;
77012;SDS011;67260;53.130;17.982;2023-11-18T20:09:42;41.20;;;20.50;;
77012;SDS011;67260;53.130;17.982;2023-11-18T20:12:09;43.50;;;20.30;;
77012;SDS011;67260;53.130;17.982;2023-11-18T20:14:36;42.00;;;20.10;;
77012;SDS011;67260;53.130;17.982;2023-11-18T20:17:06;50.10;;;21.50;;
77012;SDS011;67260;53.130;17.982;2023-11-18T20:19:34;44.20;;;21.20;;
77012;SDS011;67260;53.130;17.982;2023-11-18T20:22:06;49.60;;;22.30;;